Time;durP1;ratioP1;P1;durP2;ratioP2;P2;SDS_P1;SDS_P2;PMS_P1;PMS_P2;Temp;Humidity;BMP_temperature;BMP_pressure;BME280_temperature;BME280_humidity;BME280_pressure;Samples;Min_cycle;Max_cycle;Signal;HPM_P1;HPM_P2
2021/03/19 00:01:48;;;;;;;16.53;8.90;;;3.80;99.90;;;;;;5097409;28;20118;-67
2021/03/19 00:04:14;;;;;;;14.35;8.93;;;3.80;99.90;;;;;;5115619;28;20049;-66
2021/03/19 00:06:39;;;;;;;17.73;8.93;;;3.70;99.90;;;;;;5097116;28;20032;-66
2021/03/19 00:09:08;;;;;;;14.77;9.10;;;3.60;99.90;;;;;;5115004;28;20028;-67
2021/03/19 00:11:35;;;;;;;14.73;7.93;;;3.50;99.90;;;;;;5097998;28;20031;-67
2021/03/19 00:14:01;;;;;;;12.85;7.93;;;3.40;99.90;;;;;;5098190;28;20480;-66
2021/03/19 00:16:27;;;;;;;14.02;8.25;;;3.40;99.90;;;;;;5098779;28;20068;-67
2021/03/19 00:18:53;;;;;;;15.23;8.97;;;3.40;99.90;;;;;;5100099;28;20061;-66
2021/03/19 00:21:19;;;;;;;14.07;8.20;;;3.30;99.90;;;;;;5097469;28;20110;-67
2021/03/19 00:23:45;;;;;;;18.33;9.10;;;3.30;99.90;;;;;;5096963;28;20622;-67
2021/03/19 00:26:11;;;;;;;13.82;8.32;;;3.20;99.90;;;;;;5115497;28;20280;-67
2021/03/19 00:28:37;;;;;;;14.83;8.93;;;3.10;99.90;;;;;;5096995;28;20063;-67
2021/03/19 00:31:03;;;;;;;19.23;8.95;;;3.10;99.90;;;;;;5096595;28;20631;-67
2021/03/19 00:33:29;;;;;;;19.92;9.43;;;3.00;99.90;;;;;;5115680;28;20080;-67
2021/03/19 00:35:55;;;;;;;18.52;9.70;;;3.00;99.90;;;;;;5115216;28;20402;-67
2021/03/19 00:38:21;;;;;;;18.23;10.10;;;3.00;99.90;;;;;;5114569;28;20484;-67
2021/03/19 00:40:46;;;;;;;18.58;10.20;;;3.00;99.90;;;;;;5095919;28;20077;-65
2021/03/19 00:43:14;;;;;;;16.53;10.13;;;3.00;99.90;;;;;;5115181;28;20035;-67
2021/03/19 00:45:40;;;;;;;18.00;9.70;;;3.00;99.90;;;;;;5115602;28;20020;-66
2021/03/19 00:48:06;;;;;;;17.13;10.20;;;3.00;99.90;;;;;;5100592;28;20106;-67
2021/03/19 00:50:34;;;;;;;16.17;9.07;;;3.10;99.90;;;;;;5098171;28;20118;-66
2021/03/19 00:53:01;;;;;;;19.10;9.27;;;3.00;99.90;;;;;;5117027;28;20023;-67
2021/03/19 00:55:27;;;;;;;18.40;9.90;;;3.00;99.90;;;;;;5117233;28;20012;-67
2021/03/19 00:57:53;;;;;;;15.40;9.07;;;2.90;99.90;;;;;;5115275;28;20024;-66
2021/03/19 01:00:20;;;;;;;12.97;8.77;;;3.10;99.90;;;;;;5114837;28;20483;-68
2021/03/19 01:02:46;;;;;;;14.18;9.55;;;2.90;99.90;;;;;;5114621;28;20049;-67
2021/03/19 01:05:18;;;;;;;14.40;9.30;;;3.00;99.90;;;;;;5114633;28;20023;-67
2021/03/19 01:07:45;;;;;;;15.40;9.00;;;3.00;99.90;;;;;;5096573;28;20020;-67
2021/03/19 01:10:14;;;;;;;19.20;10.02;;;2.90;99.90;;;;;;5115037;28;20488;-67
2021/03/19 01:12:40;;;;;;;18.80;10.75;;;3.10;99.90;;;;;;5114656;28;20405;-67
2021/03/19 01:15:07;;;;;;;19.73;12.03;;;3.00;99.90;;;;;;5114731;28;20023;-67
2021/03/19 01:17:33;;;;;;;16.27;10.88;;;2.90;99.90;;;;;;5114477;28;20098;-67
2021/03/19 01:20:00;;;;;;;19.98;11.98;;;2.80;99.90;;;;;;5114609;28;20468;-68
2021/03/19 01:22:27;;;;;;;;;;;2.70;99.90;;;;;;5113915;28;20038;-67
2021/03/19 01:24:52;;;;;;;20.47;12.17;;;2.70;99.90;;;;;;5095139;28;20378;-67
2021/03/19 01:27:18;;;;;;;21.73;12.90;;;2.60;99.90;;;;;;5095317;28;20019;-67
2021/03/19 01:29:43;;;;;;;21.17;12.10;;;2.60;99.90;;;;;;5113431;28;20023;-67
2021/03/19 01:32:09;;;;;;;23.07;13.63;;;2.60;99.90;;;;;;5095132;28;20453;-67
2021/03/19 01:34:35;;;;;;;24.20;14.43;;;2.70;99.90;;;;;;5113113;28;20023;-66
2021/03/19 01:37:00;;;;;;;23.73;15.13;;;2.60;99.90;;;;;;5113605;28;20111;-65
2021/03/19 01:39:26;;;;;;;22.30;13.93;;;2.60;99.90;;;;;;5113867;28;20054;-65
2021/03/19 01:41:55;;;;;;;24.37;15.67;;;2.60;99.90;;;;;;5095108;28;20028;-66
2021/03/19 01:44:30;;;;;;;24.58;15.50;;;2.60;99.90;;;;;;5116222;28;20104;-66
2021/03/19 01:47:33;;;;;;;25.45;15.93;;;2.60;99.90;;;;;;5118484;28;20016;-67
2021/03/19 01:50:36;;;;;;;24.50;15.40;;;2.60;99.90;;;;;;5115389;28;20031;-67
2021/03/19 01:53:39;;;;;;;23.75;15.75;;;2.70;99.90;;;;;;5117396;28;20412;-66
2021/03/19 01:56:42;;;;;;;26.75;16.02;;;2.70;99.90;;;;;;5116704;28;20016;-66
2021/03/19 01:59:45;;;;;;;25.50;15.77;;;2.70;99.90;;;;;;5098311;28;20128;-66
2021/03/19 02:02:48;;;;;;;27.17;16.70;;;2.70;99.90;;;;;;5116431;28;20027;-67
2021/03/19 02:05:51;;;;;;;27.52;17.30;;;2.70;99.90;;;;;;5098434;28;20452;-67
2021/03/19 02:08:54;;;;;;;29.17;17.20;;;2.60;99.90;;;;;;5116664;28;20414;-66
2021/03/19 02:11:57;;;;;;;29.52;17.25;;;2.60;99.90;;;;;;5098277;28;20500;-67
2021/03/19 02:15:00;;;;;;;26.98;17.20;;;2.60;99.90;;;;;;5116477;28;20031;-67
2021/03/19 02:18:03;;;;;;;24.70;16.13;;;2.60;99.90;;;;;;5116548;28;20386;-67
2021/03/19 02:21:06;;;;;;;26.75;18.05;;;2.70;99.90;;;;;;5116280;28;20026;-67
2021/03/19 02:24:09;;;;;;;29.48;18.42;;;2.80;99.90;;;;;;5116426;28;20019;-67
2021/03/19 02:27:12;;;;;;;29.30;18.05;;;2.70;99.90;;;;;;5097943;28;20073;-67
2021/03/19 02:30:15;;;;;;;29.92;18.48;;;2.60;99.90;;;;;;5116346;28;20371;-67
2021/03/19 02:32:41;;;;;;;27.98;17.95;;;2.70;99.90;;;;;;5116458;28;20038;-67
2021/03/19 02:35:09;;;;;;;;;;;2.70;99.90;;;;;;5116975;28;20097;-67
2021/03/19 02:37:37;;;;;;;28.83;17.42;;;2.70;99.90;;;;;;5098164;28;19908;-66
2021/03/19 02:40:12;;;;;;;30.38;18.20;;;2.80;99.90;;;;;;5097867;28;20097;-66
2021/03/19 02:42:38;;;;;;;28.33;17.20;;;2.80;99.90;;;;;;5115996;28;20031;-66
2021/03/19 02:45:06;;;;;;;25.60;17.30;;;2.90;99.90;;;;;;5116444;28;20028;-66
2021/03/19 02:47:32;;;;;;;31.00;19.38;;;2.80;99.90;;;;;;5115877;28;20026;-66
2021/03/19 02:49:58;;;;;;;29.23;19.17;;;2.90;99.90;;;;;;5115841;28;20383;-66
2021/03/19 02:52:24;;;;;;;32.30;19.60;;;2.90;99.90;;;;;;5116464;28;20030;-66
2021/03/19 02:54:52;;;;;;;30.50;18.42;;;2.90;99.90;;;;;;5116264;28;20015;-66
2021/03/19 02:57:18;;;;;;;30.08;18.70;;;2.90;99.90;;;;;;5100519;28;20100;-66
2021/03/19 02:59:44;;;;;;;28.13;17.60;;;2.90;99.90;;;;;;5121915;28;20015;-67
2021/03/19 03:02:10;;;;;;;28.40;18.13;;;2.90;99.90;;;;;;5100124;28;20108;-66
2021/03/19 03:04:36;;;;;;;28.67;18.40;;;2.90;99.90;;;;;;5115213;28;20027;-66
2021/03/19 03:07:01;;;;;;;30.42;19.48;;;2.90;99.90;;;;;;5097330;28;20077;-66
2021/03/19 03:09:29;;;;;;;27.53;17.63;;;2.90;99.90;;;;;;5115376;28;20031;-67
2021/03/19 03:11:56;;;;;;;29.42;19.45;;;3.10;99.90;;;;;;5115511;28;20064;-66
2021/03/19 03:14:25;;;;;;;29.98;19.38;;;3.00;99.90;;;;;;5097054;28;20024;-66
2021/03/19 03:16:51;;;;;;;31.63;19.38;;;3.00;99.90;;;;;;5115301;28;20031;-66
2021/03/19 03:19:22;;;;;;;30.30;19.90;;;3.00;99.90;;;;;;5115173;28;20034;-66
2021/03/19 03:21:48;;;;;;;32.63;20.02;;;2.90;99.90;;;;;;5115098;28;20028;-66
2021/03/19 03:24:15;;;;;;;30.70;19.80;;;2.90;99.90;;;;;;5117809;28;20030;-67
2021/03/19 03:26:41;;;;;;;;;;;2.90;99.90;;;;;;5115811;28;20023;-67
2021/03/19 03:29:07;;;;;;;32.10;20.30;;;2.90;99.90;;;;;;5115485;28;19908;-66
2021/03/19 03:31:34;;;;;;;33.38;21.15;;;2.90;99.90;;;;;;5114916;28;20365;-66
2021/03/19 03:34:00;;;;;;;35.03;20.75;;;2.90;99.90;;;;;;5115133;28;20026;-66
2021/03/19 03:36:26;;;;;;;35.47;21.30;;;2.90;99.90;;;;;;5114904;28;20411;-67
2021/03/19 03:38:52;;;;;;;32.87;20.53;;;2.90;99.90;;;;;;5115005;28;20019;-67
2021/03/19 03:41:22;;;;;;;33.53;20.87;;;3.10;99.90;;;;;;5115342;28;20257;-67
2021/03/19 03:43:48;;;;;;;33.83;21.10;;;3.10;99.90;;;;;;5114913;28;20281;-67
2021/03/19 03:46:17;;;;;;;32.73;20.73;;;3.00;99.90;;;;;;5097695;28;20020;-67
2021/03/19 03:48:42;;;;;;;34.55;21.42;;;3.20;99.90;;;;;;5114694;28;20027;-67
2021/03/19 03:51:10;;;;;;;31.53;21.10;;;3.20;99.90;;;;;;5114481;28;20087;-67
2021/03/19 03:53:38;;;;;;;34.83;20.77;;;3.30;99.90;;;;;;5115106;28;20019;-67
2021/03/19 03:56:07;;;;;;;34.38;21.40;;;3.20;99.90;;;;;;5115133;28;20015;-67
2021/03/19 03:58:33;;;;;;;32.40;21.45;;;3.10;99.90;;;;;;5096471;28;20023;-67
2021/03/19 04:00:58;;;;;;;39.33;23.07;;;3.10;99.90;;;;;;5114516;28;20039;-67
2021/03/19 04:03:24;;;;;;;36.77;21.53;;;3.10;99.90;;;;;;5114188;28;20076;-67
2021/03/19 04:05:50;;;;;;;38.27;22.97;;;3.10;99.90;;;;;;5114172;28;20012;-67
2021/03/19 04:08:19;;;;;;;37.78;22.40;;;3.00;99.90;;;;;;5114286;28;20507;-67
2021/03/19 04:10:45;;;;;;;35.97;22.15;;;3.00;99.90;;;;;;5113911;28;20032;-67
2021/03/19 04:13:11;;;;;;;;;;;3.10;99.90;;;;;;5096362;28;20035;-67
2021/03/19 04:15:38;;;;;;;34.10;19.15;;;3.00;99.90;;;;;;5113186;28;19903;-67
2021/03/19 04:18:06;;;;;;;34.92;21.05;;;3.10;99.90;;;;;;5114041;28;20080;-67
2021/03/19 04:20:33;;;;;;;31.08;20.75;;;3.10;99.90;;;;;;5113810;28;20521;-67
2021/03/19 04:22:58;;;;;;;36.53;21.73;;;3.10;99.90;;;;;;5114010;28;20028;-67
2021/03/19 04:25:24;;;;;;;37.23;21.57;;;3.20;99.90;;;;;;5095640;28;20488;-66
2021/03/19 04:27:55;;;;;;;36.92;21.75;;;3.20;99.90;;;;;;5114019;28;20024;-67
2021/03/19 04:30:26;;;;;;;32.30;20.38;;;3.20;99.90;;;;;;5113420;28;20035;-67
2021/03/19 04:32:52;;;;;;;35.03;20.70;;;3.30;99.90;;;;;;5095465;28;20031;-66
2021/03/19 04:35:24;;;;;;;33.95;21.33;;;3.50;99.90;;;;;;5113703;28;20019;-66
2021/03/19 04:37:51;;;;;;;34.67;20.95;;;3.50;99.90;;;;;;5114077;28;20032;-66
2021/03/19 04:40:18;;;;;;;33.08;20.20;;;3.40;99.90;;;;;;5113543;28;20042;-66
2021/03/19 04:42:44;;;;;;;32.92;21.42;;;3.30;99.90;;;;;;5113766;28;20099;-66
2021/03/19 04:45:11;;;;;;;33.65;19.95;;;3.20;99.90;;;;;;5113937;28;20025;-66
2021/03/19 04:47:37;;;;;;;27.80;18.30;;;3.30;99.90;;;;;;5113747;28;20062;-66
2021/03/19 04:50:05;;;;;;;31.57;18.20;;;3.60;99.90;;;;;;5095172;28;20051;-66
2021/03/19 04:52:31;;;;;;;30.13;18.08;;;3.50;99.90;;;;;;5095295;28;20106;-66
2021/03/19 04:55:00;;;;;;;34.97;20.67;;;3.50;99.90;;;;;;5113554;28;20182;-66
2021/03/19 04:57:26;;;;;;;28.58;18.75;;;3.50;99.90;;;;;;5095497;28;20020;-66
2021/03/19 04:59:51;;;;;;;34.10;20.37;;;3.50;99.90;;;;;;5095066;28;20503;-66
2021/03/19 05:02:17;;;;;;;31.37;19.10;;;3.40;99.90;;;;;;5095428;28;20024;-66
2021/03/19 05:04:43;;;;;;;28.48;19.60;;;3.30;99.90;;;;;;5115778;28;20032;-66
2021/03/19 05:07:09;;;;;;;33.33;19.97;;;3.30;99.90;;;;;;5096576;28;20039;-66
2021/03/19 05:09:36;;;;;;;29.95;18.75;;;3.20;99.90;;;;;;5113337;28;20034;-66
2021/03/19 05:12:04;;;;;;;34.55;20.17;;;3.20;99.90;;;;;;5113869;28;20037;-66
2021/03/19 05:14:30;;;;;;;35.55;21.80;;;3.10;99.90;;;;;;5113457;28;20023;-66
2021/03/19 05:16:56;;;;;;;36.88;20.70;;;3.00;99.90;;;;;;5113213;28;20099;-66
2021/03/19 05:19:22;;;;;;;36.47;20.43;;;3.00;99.90;;;;;;5114072;28;20059;-66
2021/03/19 05:21:48;;;;;;;36.40;20.33;;;3.00;99.90;;;;;;5095268;28;20092;-65
2021/03/19 05:24:14;;;;;;;37.17;22.00;;;3.10;99.90;;;;;;5113485;28;20484;-66
2021/03/19 05:26:41;;;;;;;33.70;20.90;;;3.10;99.90;;;;;;5114518;28;20397;-68
2021/03/19 05:29:09;;;;;;;32.75;20.45;;;3.10;99.90;;;;;;5099138;28;20051;-66
2021/03/19 05:31:35;;;;;;;40.75;21.13;;;3.10;99.90;;;;;;5118227;28;20043;-65
2021/03/19 05:34:01;;;;;;;34.35;20.27;;;3.10;99.90;;;;;;5099153;28;20034;-65
2021/03/19 05:36:29;;;;;;;33.78;20.33;;;3.20;99.90;;;;;;5117193;28;20107;-65
2021/03/19 05:38:55;;;;;;;33.25;19.13;;;3.30;99.90;;;;;;5116907;28;20027;-65
2021/03/19 05:41:27;;;;;;;34.67;20.47;;;3.40;99.90;;;;;;5117266;28;20103;-65
2021/03/19 05:44:06;;;;;;;32.13;19.55;;;3.50;99.90;;;;;;5098758;28;20072;-64
2021/03/19 05:46:45;;;;;;;33.53;19.35;;;3.50;99.90;;;;;;5117360;28;20020;-64
2021/03/19 05:49:22;;;;;;;32.33;19.75;;;3.40;99.90;;;;;;5117170;28;20059;-64
2021/03/19 05:51:53;;;;;;;30.20;18.55;;;3.40;99.90;;;;;;5117172;28;20035;-64
2021/03/19 05:54:35;;;;;;;31.17;18.30;;;3.40;99.90;;;;;;5117307;28;20119;-63
2021/03/19 05:57:04;;;;;;;27.67;17.92;;;3.40;99.90;;;;;;5101545;28;20024;-65
2021/03/19 05:59:34;;;;;;;33.08;17.13;;;3.30;99.90;;;;;;5120611;28;20023;-64
2021/03/19 06:02:00;;;;;;;29.13;17.17;;;3.30;99.90;;;;;;5118136;28;20015;-64
2021/03/19 06:04:29;;;;;;;32.55;17.48;;;3.30;99.90;;;;;;5117422;28;20472;-64
2021/03/19 06:07:00;;;;;;;33.22;19.00;;;3.20;99.90;;;;;;5116677;28;20400;-64
2021/03/19 06:09:42;;;;;;;30.83;18.75;;;3.20;99.90;;;;;;5117118;28;20023;-64
2021/03/19 06:12:14;;;;;;;33.35;17.70;;;3.20;99.90;;;;;;5098245;28;20047;-64
2021/03/19 06:14:50;;;;;;;30.35;18.10;;;3.20;99.90;;;;;;5098290;28;20076;-64
2021/03/19 06:17:37;;;;;;;30.52;18.73;;;3.20;99.90;;;;;;5116636;28;20054;-64
2021/03/19 06:20:03;;;;;;;27.90;17.52;;;3.30;99.90;;;;;;5118392;28;20023;-64
2021/03/19 06:22:39;;;;;;;28.83;17.50;;;3.30;99.90;;;;;;5117067;28;20027;-65
2021/03/19 06:25:16;;;;;;;31.77;18.05;;;3.40;99.90;;;;;;5116354;28;20031;-64
2021/03/19 06:28:00;;;;;;;31.40;18.27;;;3.40;99.90;;;;;;5098303;28;20024;-64
2021/03/19 06:30:32;;;;;;;29.65;17.33;;;3.50;99.90;;;;;;5116005;28;20057;-63
2021/03/19 06:33:28;;;;;;;29.85;17.77;;;3.50;99.90;;;;;;5116140;28;20023;-64
2021/03/19 06:36:27;;;;;;;31.73;18.65;;;3.30;99.90;;;;;;5116218;28;20345;-65
2021/03/19 06:39:07;;;;;;;;;;;3.30;99.90;;;;;;5070500;28;20388;-64
2021/03/19 06:41:37;;;;;;;35.00;17.98;;;3.30;99.90;;;;;;5098834;28;19918;-65
2021/03/19 06:44:22;;;;;;;35.90;20.55;;;3.30;99.90;;;;;;5116361;28;20038;-65
2021/03/19 06:46:59;;;;;;;30.70;17.00;;;3.30;99.90;;;;;;5101315;28;20076;-66
2021/03/19 06:49:26;;;;;;;29.45;17.33;;;3.30;99.90;;;;;;5116747;28;20383;-66
2021/03/19 06:51:55;;;;;;;26.23;15.27;;;3.40;99.90;;;;;;5115141;28;20112;-65
2021/03/19 06:54:24;;;;;;;30.40;16.95;;;3.40;99.90;;;;;;5097499;28;20035;-66
2021/03/19 06:57:05;;;;;;;28.70;17.10;;;3.40;99.90;;;;;;5115798;28;20514;-64
2021/03/19 06:59:40;;;;;;;27.83;16.15;;;3.40;99.90;;;;;;5115412;28;20494;-65
2021/03/19 07:02:29;;;;;;;25.85;15.15;;;3.40;99.90;;;;;;5116829;28;20050;-66
2021/03/19 07:05:04;;;;;;;27.23;14.65;;;3.50;99.90;;;;;;5077622;28;20042;-64
2021/03/19 07:07:56;;;;;;;21.73;13.70;;;3.40;99.90;;;;;;5097098;28;20024;-66
2021/03/19 07:10:47;;;;;;;22.23;13.60;;;3.50;99.90;;;;;;5096999;28;20438;-65
2021/03/19 07:13:40;;;;;;;23.10;13.60;;;3.50;99.90;;;;;;5115846;28;20491;-64
2021/03/19 07:16:16;;;;;;;24.20;14.43;;;3.50;99.90;;;;;;5115738;28;20455;-65
2021/03/19 07:18:55;;;;;;;25.60;15.48;;;3.50;99.90;;;;;;5096901;28;20393;-64
2021/03/19 07:21:50;;;;;;;23.05;14.25;;;3.50;99.90;;;;;;5115004;28;20027;-64
2021/03/19 07:24:37;;;;;;;22.20;13.75;;;3.50;99.90;;;;;;5083211;28;20047;-65
2021/03/19 07:27:27;;;;;;;24.50;13.63;;;3.50;99.90;;;;;;5116146;28;20028;-64
2021/03/19 07:30:15;;;;;;;24.58;14.73;;;3.40;99.90;;;;;;5115250;28;20085;-65
2021/03/19 07:32:50;;;;;;;;;;;3.40;99.90;;;;;;5115754;28;20057;-64
2021/03/19 07:35:33;;;;;;;23.38;13.35;;;3.50;99.90;;;;;;5114914;28;19904;-64
2021/03/19 07:38:17;;;;;;;26.00;13.57;;;3.40;99.90;;;;;;5115096;28;20030;-66
2021/03/19 07:40:42;;;;;;;24.38;14.27;;;3.40;99.90;;;;;;5115013;28;20027;-66
2021/03/19 07:43:45;;;;;;;22.03;13.40;;;3.20;99.90;;;;;;5115631;28;20476;-65
2021/03/19 07:46:19;;;;;;;27.88;15.07;;;3.10;99.90;;;;;;5114956;28;20492;-66
2021/03/19 07:48:54;;;;;;;27.65;14.45;;;3.00;99.90;;;;;;5115365;28;20367;-67
2021/03/19 07:51:31;;;;;;;25.73;15.60;;;3.00;99.90;;;;;;5114681;28;20122;-67
2021/03/19 07:54:23;;;;;;;26.38;14.25;;;3.10;99.90;;;;;;5114783;28;20027;-66
2021/03/19 07:56:58;;;;;;;24.55;13.77;;;3.00;99.90;;;;;;5110711;28;20039;-66
2021/03/19 07:59:27;;;;;;;24.13;13.77;;;3.10;99.90;;;;;;5114520;28;20098;-66
2021/03/19 08:02:12;;;;;;;24.45;14.20;;;3.10;99.90;;;;;;5115658;28;20086;-67
2021/03/19 08:04:43;;;;;;;27.55;15.07;;;3.20;99.90;;;;;;5096350;28;20027;-67
2021/03/19 08:07:26;;;;;;;25.00;14.73;;;3.20;99.90;;;;;;5121726;28;20090;-66
2021/03/19 08:10:19;;;;;;;25.75;15.25;;;3.30;99.90;;;;;;5118318;28;20028;-67
2021/03/19 08:13:01;;;;;;;23.63;14.25;;;3.20;99.90;;;;;;5103227;28;20039;-67
2021/03/19 08:15:51;;;;;;;26.10;14.40;;;3.30;99.90;;;;;;5114210;28;20016;-67
2021/03/19 08:18:41;;;;;;;23.13;13.32;;;3.10;99.90;;;;;;5113827;28;20026;-67
2021/03/19 08:21:29;;;;;;;24.40;14.13;;;3.10;99.90;;;;;;5114128;28;20057;-67
2021/03/19 08:24:09;;;;;;;23.38;14.25;;;3.10;99.90;;;;;;5095648;28;20102;-67
2021/03/19 08:26:44;;;;;;;25.17;14.57;;;3.10;99.90;;;;;;5095320;28;20464;-67
2021/03/19 08:29:19;;;;;;;28.52;15.95;;;3.10;99.90;;;;;;5113941;28;20023;-67
2021/03/19 08:32:19;;;;;;;24.98;14.27;;;3.30;99.90;;;;;;5095208;28;20034;-67
2021/03/19 08:35:31;;;;;;;24.50;14.23;;;3.30;99.90;;;;;;5113624;28;20072;-67
2021/03/19 08:38:27;;;;;;;26.08;14.65;;;3.30;99.90;;;;;;5068315;28;20035;-67
2021/03/19 08:41:24;;;;;;;25.65;14.05;;;3.40;99.90;;;;;;5113599;28;20106;-67
2021/03/19 08:43:54;;;;;;;26.80;14.85;;;3.50;99.90;;;;;;5110004;28;20389;-67
2021/03/19 08:46:40;;;;;;;29.95;16.08;;;3.50;99.90;;;;;;5096068;28;20051;-67
2021/03/19 08:49:24;;;;;;;28.63;16.83;;;3.40;99.90;;;;;;5113823;28;20164;-67
2021/03/19 08:51:50;;;;;;;29.52;17.05;;;3.40;99.90;;;;;;5117695;28;20024;-67
2021/03/19 08:54:21;;;;;;;29.30;16.98;;;3.40;99.90;;;;;;5116542;28;20481;-67
2021/03/19 08:57:16;;;;;;;31.35;17.58;;;3.40;99.90;;;;;;5096768;28;20031;-67
2021/03/19 08:59:41;;;;;;;34.22;18.73;;;3.50;99.90;;;;;;5096457;28;20027;-67
2021/03/19 09:02:25;;;;;;;34.33;18.50;;;3.40;99.90;;;;;;5116219;28;20023;-67
2021/03/19 09:04:57;;;;;;;34.72;19.63;;;3.40;99.90;;;;;;5118488;28;20028;-67
2021/03/19 09:07:25;;;;;;;40.92;20.40;;;3.40;99.90;;;;;;5118132;28;20096;-67
2021/03/19 09:09:54;;;;;;;36.40;20.40;;;3.40;99.90;;;;;;5118273;28;20024;-68
2021/03/19 09:12:44;;;;;;;37.58;20.40;;;3.40;99.90;;;;;;5118157;28;20020;-66
2021/03/19 09:15:16;;;;;;;38.95;20.65;;;3.40;99.90;;;;;;5078842;28;20034;-68
2021/03/19 09:17:46;;;;;;;38.65;21.02;;;3.60;99.90;;;;;;5118185;28;20028;-68
2021/03/19 09:20:23;;;;;;;36.55;20.35;;;3.60;99.90;;;;;;5099673;28;20425;-67
2021/03/19 09:23:04;;;;;;;42.55;22.60;;;3.70;99.90;;;;;;5099747;28;20508;-67
2021/03/19 09:25:57;;;;;;;40.42;20.17;;;3.70;99.90;;;;;;5118164;28;20035;-66
2021/03/19 09:28:31;;;;;;;37.10;20.80;;;3.70;99.90;;;;;;5099549;28;20023;-66
2021/03/19 09:31:09;;;;;;;41.80;22.17;;;3.80;99.90;;;;;;5099010;28;20480;-66
2021/03/19 09:33:44;;;;;;;40.33;21.25;;;3.90;99.90;;;;;;5099573;28;20092;-66
2021/03/19 09:36:47;;;;;;;41.13;20.75;;;4.00;99.90;;;;;;5118002;28;20066;-67
2021/03/19 09:39:51;;;;;;;36.38;21.13;;;4.10;99.90;;;;;;5117268;28;20050;-67
2021/03/19 09:42:23;;;;;;;35.40;19.35;;;4.20;99.90;;;;;;5117157;28;20038;-66
2021/03/19 09:44:58;;;;;;;33.55;19.23;;;4.30;99.90;;;;;;5117264;28;20038;-66
2021/03/19 09:47:29;;;;;;;35.65;19.25;;;4.30;99.90;;;;;;5116810;28;20096;-66
2021/03/19 09:50:17;;;;;;;33.30;19.42;;;4.40;99.90;;;;;;5098392;28;20023;-67
2021/03/19 09:53:00;;;;;;;31.65;19.15;;;4.40;99.90;;;;;;5116740;28;20437;-67
2021/03/19 09:55:44;;;;;;;30.25;17.25;;;4.40;99.90;;;;;;5116991;28;20031;-66
2021/03/19 09:58:39;;;;;;;27.02;15.35;;;4.50;99.90;;;;;;5097997;28;20164;-67
2021/03/19 10:01:16;;;;;;;27.08;16.25;;;4.50;99.90;;;;;;5087152;28;20028;-67
2021/03/19 10:03:53;;;;;;;27.88;16.60;;;4.50;99.90;;;;;;5116365;28;20025;-66
2021/03/19 10:06:32;;;;;;;25.25;14.63;;;4.70;99.90;;;;;;5118701;28;20064;-67
2021/03/19 10:09:14;;;;;;;26.20;14.57;;;4.70;99.90;;;;;;5098492;28;20114;-67
2021/03/19 10:12:09;;;;;;;22.88;13.57;;;4.80;99.90;;;;;;5115965;28;20027;-67
2021/03/19 10:14:40;;;;;;;24.25;14.48;;;5.00;99.90;;;;;;5099401;28;20050;-67
2021/03/19 10:17:10;;;;;;;23.48;14.15;;;5.00;99.90;;;;;;5117960;28;20023;-68
2021/03/19 10:19:38;;;;;;;23.25;14.00;;;5.10;99.90;;;;;;5118277;28;20055;-67
2021/03/19 10:22:06;;;;;;;19.65;12.40;;;5.10;99.90;;;;;;5117304;28;20019;-66
2021/03/19 10:24:33;;;;;;;22.92;13.88;;;5.10;99.90;;;;;;5117120;28;20073;-66
2021/03/19 10:27:02;;;;;;;19.65;12.32;;;5.20;99.90;;;;;;5116443;28;20028;-67
2021/03/19 10:29:34;;;;;;;22.15;13.15;;;5.20;99.90;;;;;;5117613;28;20113;-67
2021/03/19 10:32:22;;;;;;;21.40;13.38;;;5.30;99.90;;;;;;5097408;28;20460;-67
2021/03/19 10:34:59;;;;;;;20.80;13.45;;;5.30;99.90;;;;;;5097451;28;20028;-67
2021/03/19 10:37:33;;;;;;;13.27;8.27;;;5.00;99.90;;;;;;5097170;28;20027;-67
2021/03/19 10:40:17;;;;;;;12.35;7.80;;;4.50;99.90;;;;;;5097491;28;20036;-67
2021/03/19 10:43:17;;;;;;;11.15;7.20;;;4.10;99.90;;;;;;5116892;28;20102;-67
2021/03/19 10:46:02;;;;;;;9.00;6.05;;;4.20;99.90;;;;;;5098535;28;20036;-67
2021/03/19 10:48:28;;;;;;;9.27;6.65;;;3.90;99.90;;;;;;5097094;28;20077;-67
2021/03/19 10:51:19;;;;;;;9.57;7.13;;;3.70;99.90;;;;;;5115401;28;20023;-67
2021/03/19 10:53:51;;;;;;;11.00;7.28;;;3.60;99.90;;;;;;5119013;28;20015;-68
2021/03/19 10:56:18;;;;;;;12.02;7.80;;;3.60;99.90;;;;;;5120061;28;20055;-68
2021/03/19 10:58:50;;;;;;;10.73;7.30;;;3.70;99.90;;;;;;5097429;28;20050;-68
2021/03/19 11:01:56;;;;;;;11.30;7.47;;;3.70;99.90;;;;;;5097289;28;20027;-68
2021/03/19 11:04:40;;;;;;;12.65;8.18;;;3.70;99.90;;;;;;5074016;28;20032;-67
2021/03/19 11:07:31;;;;;;;11.15;7.35;;;3.80;99.90;;;;;;5115800;28;20019;-68
2021/03/19 11:10:07;;;;;;;12.75;7.50;;;4.00;99.90;;;;;;5097355;28;20035;-68
2021/03/19 11:12:40;;;;;;;12.15;8.25;;;4.30;99.90;;;;;;5098005;28;20015;-67
2021/03/19 11:15:35;;;;;;;10.50;7.90;;;4.60;99.90;;;;;;5115732;28;20048;-67
2021/03/19 11:18:19;;;;;;;10.77;7.03;;;4.90;99.90;;;;;;5100608;28;20110;-67
2021/03/19 11:20:48;;;;;;;10.15;6.85;;;5.10;99.90;;;;;;5097065;28;20044;-67
2021/03/19 11:23:18;;;;;;;10.10;6.53;;;5.30;99.90;;;;;;5115569;28;20015;-68
2021/03/19 11:25:49;;;;;;;9.55;6.03;;;5.30;99.90;;;;;;5114872;28;20020;-67
2021/03/19 11:28:43;;;;;;;12.02;7.97;;;5.20;99.90;;;;;;5096625;28;20024;-67
2021/03/19 11:31:17;;;;;;;11.23;7.60;;;5.10;99.90;;;;;;5097063;28;20039;-68
2021/03/19 11:34:12;;;;;;;11.40;8.13;;;4.90;99.90;;;;;;5115064;28;20045;-67
2021/03/19 11:37:00;;;;;;;12.95;8.10;;;4.90;99.90;;;;;;5115250;28;20020;-67
2021/03/19 11:39:32;;;;;;;12.35;8.02;;;5.00;99.90;;;;;;5115540;28;20361;-66
2021/03/19 11:41:58;;;;;;;12.35;8.02;;;4.90;99.90;;;;;;5115562;28;20100;-67
2021/03/19 11:44:23;;;;;;;11.83;7.97;;;4.90;99.90;;;;;;5115422;28;20461;-67
2021/03/19 11:46:49;;;;;;;10.97;7.50;;;4.90;99.90;;;;;;5102100;28;20062;-67
2021/03/19 11:49:15;;;;;;;10.03;6.80;;;4.90;99.90;;;;;;5115301;28;20028;-67
2021/03/19 11:51:41;;;;;;;;;;;5.10;99.90;;;;;;5115230;28;20238;-67
2021/03/19 11:54:09;;;;;;;8.40;5.82;;;5.20;99.90;;;;;;5114446;28;19904;-68
2021/03/19 11:56:37;;;;;;;10.90;7.18;;;5.20;99.90;;;;;;5095823;28;20550;-66
2021/03/19 11:59:04;;;;;;;9.55;6.47;;;5.20;99.90;;;;;;5097037;28;20059;-67
2021/03/19 12:01:31;;;;;;;9.90;6.78;;;5.30;99.90;;;;;;5099604;28;20019;-67
2021/03/19 12:03:58;;;;;;;10.35;6.88;;;5.30;99.90;;;;;;5119295;28;20023;-67
2021/03/19 12:06:27;;;;;;;9.25;6.68;;;5.30;99.90;;;;;;5102205;28;20027;-66
2021/03/19 12:08:53;;;;;;;10.98;7.28;;;5.40;99.90;;;;;;5099696;28;20020;-67
2021/03/19 12:11:27;;;;;;;11.60;7.13;;;5.40;99.90;;;;;;5117082;28;20022;-66
2021/03/19 12:13:55;;;;;;;10.68;7.20;;;5.70;99.90;;;;;;5097777;28;20027;-67
2021/03/19 12:16:21;;;;;;;11.27;7.65;;;5.80;99.90;;;;;;5097090;28;20068;-68
2021/03/19 12:18:47;;;;;;;10.18;6.80;;;5.90;99.90;;;;;;5115147;28;20020;-67
2021/03/19 12:21:14;;;;;;;8.90;6.30;;;6.10;99.90;;;;;;5097726;28;20020;-69
2021/03/19 12:23:46;;;;;;;10.50;6.88;;;6.00;99.90;;;;;;5098555;28;20024;-68
2021/03/19 12:26:11;;;;;;;8.25;6.47;;;6.10;99.90;;;;;;5097210;28;20024;-69
2021/03/19 12:28:37;;;;;;;9.20;6.37;;;6.10;99.90;;;;;;5116230;28;20432;-68
2021/03/19 12:31:03;;;;;;;7.40;5.40;;;6.10;99.90;;;;;;5113963;28;20035;-67
2021/03/19 12:33:32;;;;;;;8.35;5.60;;;6.10;99.90;;;;;;5114646;28;20020;-67
2021/03/19 12:35:58;;;;;;;11.48;6.97;;;6.20;99.90;;;;;;5114055;28;20032;-68
2021/03/19 12:38:24;;;;;;;7.95;5.90;;;6.10;99.90;;;;;;5114010;28;20028;-67
2021/03/19 12:40:49;;;;;;;7.97;5.97;;;6.30;99.90;;;;;;5095639;28;20039;-68
2021/03/19 12:43:16;;;;;;;8.93;6.57;;;6.40;99.90;;;;;;5095439;28;20023;-68
2021/03/19 12:45:42;;;;;;;9.57;6.78;;;6.40;99.90;;;;;;5114260;28;20035;-68
2021/03/19 12:48:08;;;;;;;;;;;6.20;99.90;;;;;;5115207;28;20032;-68
2021/03/19 12:50:34;;;;;;;11.80;6.65;;;6.10;99.90;;;;;;5095819;28;19908;-68
2021/03/19 12:53:03;;;;;;;8.45;6.00;;;6.30;99.90;;;;;;5113718;28;20020;-68
2021/03/19 12:55:31;;;;;;;8.18;5.72;;;6.40;99.90;;;;;;5095606;28;20028;-68
2021/03/19 12:57:56;;;;;;;9.60;6.22;;;6.40;99.90;;;;;;5095553;28;20106;-67
2021/03/19 13:00:26;;;;;;;8.70;6.43;;;6.30;99.90;;;;;;5113919;28;20086;-68
2021/03/19 13:02:52;;;;;;;9.07;5.38;;;6.30;99.90;;;;;;5113856;28;20027;-68
2021/03/19 13:05:20;;;;;;;7.85;5.88;;;6.30;99.90;;;;;;5113793;28;20038;-66
2021/03/19 13:07:46;;;;;;;8.93;5.38;;;6.40;99.90;;;;;;5113506;28;20031;-69
2021/03/19 13:10:12;;;;;;;8.77;5.40;;;6.60;99.90;;;;;;5113473;28;20034;-66
2021/03/19 13:12:38;;;;;;;;;;;6.20;99.90;;;;;;5114042;28;20024;-67
2021/03/19 13:15:06;;;;;;;11.15;5.82;;;5.80;99.90;;;;;;5113673;28;19911;-68
2021/03/19 13:17:32;;;;;;;7.65;5.15;;;5.60;99.90;;;;;;5113396;28;20070;-68
2021/03/19 13:19:58;;;;;;;9.02;6.03;;;5.40;99.90;;;;;;5113239;28;20051;-68